sensor_id;sensor_type;location;lat;lon;timestamp;P1;durP1;ratioP1;P2;durP2;ratioP2
26906;SDS011;14472;56.880;16.658;2022-11-15T00:01:37;4.80;;;4.30;;
26906;SDS011;14472;56.880;16.658;2022-11-15T00:04:04;4.37;;;3.97;;
26906;SDS011;14472;56.880;16.658;2022-11-15T00:06:30;4.47;;;4.07;;
26906;SDS011;14472;56.880;16.658;2022-11-15T00:08:59;4.53;;;4.00;;
26906;SDS011;14472;56.880;16.658;2022-11-15T00:11:26;4.30;;;3.77;;
26906;SDS011;14472;56.880;16.658;2022-11-15T00:13:54;4.43;;;3.93;;
26906;SDS011;14472;56.880;16.658;2022-11-15T00:16:21;4.03;;;3.57;;
26906;SDS011;14472;56.880;16.658;2022-11-15T00:18:47;3.70;;;3.40;;
26906;SDS011;14472;56.880;16.658;2022-11-15T00:21:13;3.97;;;3.50;;
26906;SDS011;14472;56.880;16.658;2022-11-15T00:23:39;4.07;;;3.67;;
26906;SDS011;14472;56.880;16.658;2022-11-15T00:26:05;3.43;;;3.13;;
26906;SDS011;14472;56.880;16.658;2022-11-15T00:28:31;4.10;;;3.60;;
26906;SDS011;14472;56.880;16.658;2022-11-15T00:31:01;4.87;;;4.00;;
26906;SDS011;14472;56.880;16.658;2022-11-15T00:33:28;4.50;;;3.37;;
26906;SDS011;14472;56.880;16.658;2022-11-15T00:35:58;3.83;;;3.50;;
26906;SDS011;14472;56.880;16.658;2022-11-15T00:38:25;4.30;;;3.90;;
26906;SDS011;14472;56.880;16.658;2022-11-15T00:40:55;5.47;;;3.67;;
26906;SDS011;14472;56.880;16.658;2022-11-15T00:43:20;4.13;;;3.73;;
26906;SDS011;14472;56.880;16.658;2022-11-15T00:45:46;3.77;;;3.47;;
26906;SDS011;14472;56.880;16.658;2022-11-15T00:48:12;4.30;;;3.90;;
26906;SDS011;14472;56.880;16.658;2022-11-15T00:50:37;4.40;;;4.00;;
26906;SDS011;14472;56.880;16.658;2022-11-15T00:53:03;4.20;;;3.77;;
26906;SDS011;14472;56.880;16.658;2022-11-15T00:55:29;4.37;;;3.87;;
26906;SDS011;14472;56.880;16.658;2022-11-15T00:57:54;4.63;;;4.13;;
26906;SDS011;14472;56.880;16.658;2022-11-15T01:00:20;4.83;;;4.17;;
26906;SDS011;14472;56.880;16.658;2022-11-15T01:02:46;4.50;;;4.10;;
26906;SDS011;14472;56.880;16.658;2022-11-15T01:05:11;5.47;;;4.40;;
26906;SDS011;14472;56.880;16.658;2022-11-15T01:07:37;4.47;;;4.07;;
26906;SDS011;14472;56.880;16.658;2022-11-15T01:10:03;4.57;;;3.90;;
26906;SDS011;14472;56.880;16.658;2022-11-15T01:12:29;5.10;;;4.60;;
26906;SDS011;14472;56.880;16.658;2022-11-15T01:14:55;4.63;;;4.10;;
26906;SDS011;14472;56.880;16.658;2022-11-15T01:17:21;5.00;;;4.50;;
26906;SDS011;14472;56.880;16.658;2022-11-15T01:19:46;4.57;;;4.10;;
26906;SDS011;14472;56.880;16.658;2022-11-15T01:22:12;4.80;;;4.30;;
26906;SDS011;14472;56.880;16.658;2022-11-15T01:24:38;4.50;;;4.10;;
26906;SDS011;14472;56.880;16.658;2022-11-15T01:27:03;4.53;;;4.13;;
26906;SDS011;14472;56.880;16.658;2022-11-15T01:29:29;4.53;;;4.13;;
26906;SDS011;14472;56.880;16.658;2022-11-15T01:31:55;4.50;;;4.10;;
26906;SDS011;14472;56.880;16.658;2022-11-15T01:34:21;4.47;;;4.07;;
26906;SDS011;14472;56.880;16.658;2022-11-15T01:36:46;4.47;;;3.90;;
26906;SDS011;14472;56.880;16.658;2022-11-15T01:39:12;4.70;;;4.20;;
26906;SDS011;14472;56.880;16.658;2022-11-15T01:41:38;4.63;;;4.13;;
26906;SDS011;14472;56.880;16.658;2022-11-15T01:44:49;4.23;;;3.83;;
26906;SDS011;14472;56.880;16.658;2022-11-15T01:47:13;4.47;;;4.07;;
26906;SDS011;14472;56.880;16.658;2022-11-15T01:49:47;4.40;;;4.00;;
26906;SDS011;14472;56.880;16.658;2022-11-15T01:52:25;5.67;;;4.30;;
26906;SDS011;14472;56.880;16.658;2022-11-15T01:54:56;4.67;;;4.20;;
26906;SDS011;14472;56.880;16.658;2022-11-15T01:57:30;4.77;;;4.27;;
26906;SDS011;14472;56.880;16.658;2022-11-15T01:59:56;4.40;;;3.90;;
26906;SDS011;14472;56.880;16.658;2022-11-15T02:02:25;4.50;;;3.97;;
26906;SDS011;14472;56.880;16.658;2022-11-15T02:04:51;4.40;;;4.00;;
26906;SDS011;14472;56.880;16.658;2022-11-15T02:07:17;4.40;;;4.00;;
26906;SDS011;14472;56.880;16.658;2022-11-15T02:09:44;4.33;;;3.90;;
26906;SDS011;14472;56.880;16.658;2022-11-15T02:12:11;4.40;;;4.00;;
26906;SDS011;14472;56.880;16.658;2022-11-15T02:14:41;4.33;;;3.93;;
26906;SDS011;14472;56.880;16.658;2022-11-15T02:17:25;4.23;;;3.83;;
26906;SDS011;14472;56.880;16.658;2022-11-15T02:25:50;3.77;;;3.47;;
26906;SDS011;14472;56.880;16.658;2022-11-15T02:28:48;3.93;;;3.53;;
26906;SDS011;14472;56.880;16.658;2022-11-15T02:31:46;3.60;;;3.30;;
26906;SDS011;14472;56.880;16.658;2022-11-15T02:37:02;4.00;;;3.60;;
26906;SDS011;14472;56.880;16.658;2022-11-15T02:42:33;4.03;;;3.63;;
26906;SDS011;14472;56.880;16.658;2022-11-15T02:45:26;4.03;;;3.63;;
26906;SDS011;14472;56.880;16.658;2022-11-15T02:47:56;3.70;;;3.40;;
26906;SDS011;14472;56.880;16.658;2022-11-15T02:50:27;4.03;;;3.63;;
26906;SDS011;14472;56.880;16.658;2022-11-15T02:52:55;3.83;;;2.90;;
26906;SDS011;14472;56.880;16.658;2022-11-15T02:55:31;4.50;;;3.47;;
26906;SDS011;14472;56.880;16.658;2022-11-15T03:01:01;4.03;;;3.63;;
26906;SDS011;14472;56.880;16.658;2022-11-15T03:12:12;4.30;;;3.70;;
26906;SDS011;14472;56.880;16.658;2022-11-15T03:14:56;3.90;;;3.50;;
26906;SDS011;14472;56.880;16.658;2022-11-15T03:17:33;3.83;;;3.43;;
26906;SDS011;14472;56.880;16.658;2022-11-15T03:20:04;4.00;;;3.60;;
26906;SDS011;14472;56.880;16.658;2022-11-15T03:22:33;4.77;;;3.80;;
26906;SDS011;14472;56.880;16.658;2022-11-15T03:25:04;4.53;;;3.93;;
26906;SDS011;14472;56.880;16.658;2022-11-15T03:27:33;4.23;;;3.37;;
26906;SDS011;14472;56.880;16.658;2022-11-15T03:30:05;4.00;;;3.60;;
26906;SDS011;14472;56.880;16.658;2022-11-15T03:32:37;4.10;;;3.67;;
26906;SDS011;14472;56.880;16.658;2022-11-15T03:35:11;4.07;;;3.67;;
26906;SDS011;14472;56.880;16.658;2022-11-15T03:37:41;3.83;;;3.53;;
26906;SDS011;14472;56.880;16.658;2022-11-15T03:40:09;4.13;;;3.73;;
26906;SDS011;14472;56.880;16.658;2022-11-15T03:42:39;3.80;;;3.50;;
26906;SDS011;14472;56.880;16.658;2022-11-15T03:45:22;4.50;;;4.10;;
26906;SDS011;14472;56.880;16.658;2022-11-15T03:50:58;4.23;;;3.83;;
26906;SDS011;14472;56.880;16.658;2022-11-15T03:53:24;4.30;;;3.90;;
26906;SDS011;14472;56.880;16.658;2022-11-15T03:55:50;3.70;;;3.30;;
26906;SDS011;14472;56.880;16.658;2022-11-15T03:58:16;3.50;;;3.20;;
26906;SDS011;14472;56.880;16.658;2022-11-15T04:00:41;4.43;;;3.43;;
26906;SDS011;14472;56.880;16.658;2022-11-15T04:03:07;3.33;;;2.90;;
26906;SDS011;14472;56.880;16.658;2022-11-15T04:05:33;3.27;;;2.97;;
26906;SDS011;14472;56.880;16.658;2022-11-15T04:07:59;3.20;;;2.90;;
26906;SDS011;14472;56.880;16.658;2022-11-15T04:10:24;3.60;;;3.30;;
26906;SDS011;14472;56.880;16.658;2022-11-15T04:12:50;3.60;;;3.30;;
26906;SDS011;14472;56.880;16.658;2022-11-15T04:15:17;3.57;;;3.27;;
26906;SDS011;14472;56.880;16.658;2022-11-15T04:20:19;3.03;;;2.77;;
26906;SDS011;14472;56.880;16.658;2022-11-15T04:23:07;2.70;;;2.50;;
26906;SDS011;14472;56.880;16.658;2022-11-15T04:26:02;3.37;;;2.80;;
26906;SDS011;14472;56.880;16.658;2022-11-15T04:28:41;2.90;;;2.60;;
26906;SDS011;14472;56.880;16.658;2022-11-15T04:31:26;3.10;;;2.80;;
26906;SDS011;14472;56.880;16.658;2022-11-15T04:33:52;2.90;;;2.70;;
26906;SDS011;14472;56.880;16.658;2022-11-15T04:36:18;3.00;;;2.70;;
26906;SDS011;14472;56.880;16.658;2022-11-15T04:39:03;4.40;;;3.37;;
26906;SDS011;14472;56.880;16.658;2022-11-15T04:41:29;3.30;;;2.80;;
26906;SDS011;14472;56.880;16.658;2022-11-15T04:43:54;3.10;;;2.70;;
26906;SDS011;14472;56.880;16.658;2022-11-15T04:46:21;3.00;;;2.70;;
26906;SDS011;14472;56.880;16.658;2022-11-15T04:48:48;3.57;;;2.80;;
26906;SDS011;14472;56.880;16.658;2022-11-15T04:51:14;3.77;;;3.10;;
26906;SDS011;14472;56.880;16.658;2022-11-15T04:53:40;3.27;;;2.97;;
26906;SDS011;14472;56.880;16.658;2022-11-15T04:56:06;4.93;;;3.37;;
26906;SDS011;14472;56.880;16.658;2022-11-15T04:58:32;3.30;;;2.90;;
26906;SDS011;14472;56.880;16.658;2022-11-15T05:00:58;3.27;;;2.97;;
26906;SDS011;14472;56.880;16.658;2022-11-15T05:03:23;3.27;;;2.97;;
26906;SDS011;14472;56.880;16.658;2022-11-15T05:06:07;4.33;;;2.83;;
26906;SDS011;14472;56.880;16.658;2022-11-15T05:08:33;3.70;;;3.30;;
26906;SDS011;14472;56.880;16.658;2022-11-15T05:10:59;3.47;;;3.13;;
26906;SDS011;14472;56.880;16.658;2022-11-15T05:13:24;3.30;;;3.00;;
26906;SDS011;14472;56.880;16.658;2022-11-15T05:15:50;3.37;;;3.07;;
26906;SDS011;14472;56.880;16.658;2022-11-15T05:18:16;3.73;;;3.20;;
26906;SDS011;14472;56.880;16.658;2022-11-15T05:20:41;3.60;;;3.30;;
26906;SDS011;14472;56.880;16.658;2022-11-15T05:23:07;3.87;;;3.10;;
26906;SDS011;14472;56.880;16.658;2022-11-15T05:25:33;3.97;;;3.67;;
26906;SDS011;14472;56.880;16.658;2022-11-15T05:28:00;3.60;;;3.30;;
26906;SDS011;14472;56.880;16.658;2022-11-15T05:30:26;3.67;;;3.37;;
26906;SDS011;14472;56.880;16.658;2022-11-15T05:32:52;3.50;;;3.20;;
26906;SDS011;14472;56.880;16.658;2022-11-15T05:35:25;3.73;;;3.40;;
26906;SDS011;14472;56.880;16.658;2022-11-15T05:38:00;3.70;;;3.40;;
26906;SDS011;14472;56.880;16.658;2022-11-15T05:40:26;3.57;;;3.23;;
26906;SDS011;14472;56.880;16.658;2022-11-15T05:42:53;3.60;;;3.30;;
26906;SDS011;14472;56.880;16.658;2022-11-15T05:45:20;3.93;;;3.60;;
26906;SDS011;14472;56.880;16.658;2022-11-15T05:47:45;3.80;;;3.50;;
26906;SDS011;14472;56.880;16.658;2022-11-15T05:50:12;4.27;;;3.90;;
26906;SDS011;14472;56.880;16.658;2022-11-15T05:52:40;3.93;;;3.63;;
26906;SDS011;14472;56.880;16.658;2022-11-15T05:55:07;4.30;;;3.90;;
26906;SDS011;14472;56.880;16.658;2022-11-15T05:57:34;4.13;;;3.70;;
26906;SDS011;14472;56.880;16.658;2022-11-15T06:00:00;4.00;;;3.60;;
26906;SDS011;14472;56.880;16.658;2022-11-15T06:02:26;3.73;;;3.43;;
26906;SDS011;14472;56.880;16.658;2022-11-15T06:04:52;4.60;;;3.70;;
26906;SDS011;14472;56.880;16.658;2022-11-15T06:07:18;3.50;;;3.20;;
26906;SDS011;14472;56.880;16.658;2022-11-15T06:09:43;3.60;;;3.30;;
26906;SDS011;14472;56.880;16.658;2022-11-15T06:12:09;3.47;;;3.17;;
26906;SDS011;14472;56.880;16.658;2022-11-15T06:14:34;4.00;;;3.50;;
26906;SDS011;14472;56.880;16.658;2022-11-15T06:17:00;3.87;;;3.57;;
26906;SDS011;14472;56.880;16.658;2022-11-15T06:19:26;5.47;;;3.70;;
26906;SDS011;14472;56.880;16.658;2022-11-15T06:21:52;4.00;;;3.60;;
26906;SDS011;14472;56.880;16.658;2022-11-15T06:24:18;4.13;;;3.83;;
26906;SDS011;14472;56.880;16.658;2022-11-15T06:26:43;4.20;;;3.80;;
26906;SDS011;14472;56.880;16.658;2022-11-15T06:29:09;3.63;;;3.27;;
26906;SDS011;14472;56.880;16.658;2022-11-15T06:31:35;4.67;;;3.83;;
26906;SDS011;14472;56.880;16.658;2022-11-15T06:34:00;3.40;;;3.10;;
26906;SDS011;14472;56.880;16.658;2022-11-15T06:36:26;3.40;;;3.10;;
26906;SDS011;14472;56.880;16.658;2022-11-15T06:38:52;3.20;;;2.90;;
26906;SDS011;14472;56.880;16.658;2022-11-15T06:41:17;5.43;;;3.50;;
26906;SDS011;14472;56.880;16.658;2022-11-15T06:43:43;3.80;;;3.07;;
26906;SDS011;14472;56.880;16.658;2022-11-15T06:46:09;5.43;;;3.47;;
26906;SDS011;14472;56.880;16.658;2022-11-15T06:48:35;3.47;;;3.17;;
26906;SDS011;14472;56.880;16.658;2022-11-15T06:51:01;3.50;;;3.20;;
26906;SDS011;14472;56.880;16.658;2022-11-15T06:53:29;4.03;;;3.60;;
26906;SDS011;14472;56.880;16.658;2022-11-15T06:55:59;4.40;;;3.83;;
26906;SDS011;14472;56.880;16.658;2022-11-15T06:58:29;4.53;;;3.23;;
26906;SDS011;14472;56.880;16.658;2022-11-15T07:01:08;3.83;;;3.37;;
26906;SDS011;14472;56.880;16.658;2022-11-15T07:03:39;3.33;;;2.97;;
26906;SDS011;14472;56.880;16.658;2022-11-15T07:06:07;3.40;;;3.10;;
26906;SDS011;14472;56.880;16.658;2022-11-15T07:08:34;2.90;;;2.60;;
26906;SDS011;14472;56.880;16.658;2022-11-15T07:11:01;2.30;;;2.10;;
26906;SDS011;14472;56.880;16.658;2022-11-15T07:13:29;2.20;;;1.97;;
26906;SDS011;14472;56.880;16.658;2022-11-15T07:15:58;2.20;;;2.00;;
26906;SDS011;14472;56.880;16.658;2022-11-15T07:18:27;2.30;;;2.10;;
26906;SDS011;14472;56.880;16.658;2022-11-15T07:20:53;2.07;;;1.90;;
26906;SDS011;14472;56.880;16.658;2022-11-15T07:23:19;1.70;;;1.60;;
26906;SDS011;14472;56.880;16.658;2022-11-15T07:25:44;2.10;;;1.90;;
26906;SDS011;14472;56.880;16.658;2022-11-15T07:28:10;1.70;;;1.60;;
26906;SDS011;14472;56.880;16.658;2022-11-15T07:30:35;2.20;;;1.70;;
26906;SDS011;14472;56.880;16.658;2022-11-15T07:33:01;2.07;;;1.80;;
26906;SDS011;14472;56.880;16.658;2022-11-15T07:35:27;1.80;;;1.70;;
26906;SDS011;14472;56.880;16.658;2022-11-15T07:37:57;3.53;;;1.90;;
26906;SDS011;14472;56.880;16.658;2022-11-15T07:40:25;1.60;;;1.50;;
26906;SDS011;14472;56.880;16.658;2022-11-15T07:42:52;2.40;;;1.93;;
26906;SDS011;14472;56.880;16.658;2022-11-15T07:45:23;1.60;;;1.50;;
26906;SDS011;14472;56.880;16.658;2022-11-15T07:47:52;2.13;;;1.50;;
26906;SDS011;14472;56.880;16.658;2022-11-15T07:50:19;1.77;;;1.67;;
26906;SDS011;14472;56.880;16.658;2022-11-15T07:52:45;1.83;;;1.60;;
26906;SDS011;14472;56.880;16.658;2022-11-15T07:55:10;2.50;;;1.73;;
26906;SDS011;14472;56.880;16.658;2022-11-15T07:57:36;1.97;;;1.77;;
26906;SDS011;14472;56.880;16.658;2022-11-15T08:00:03;3.33;;;1.80;;
26906;SDS011;14472;56.880;16.658;2022-11-15T08:02:30;1.40;;;1.30;;
26906;SDS011;14472;56.880;16.658;2022-11-15T08:04:56;2.07;;;1.80;;
26906;SDS011;14472;56.880;16.658;2022-11-15T08:07:22;1.87;;;1.40;;
26906;SDS011;14472;56.880;16.658;2022-11-15T08:09:47;1.60;;;1.40;;
26906;SDS011;14472;56.880;16.658;2022-11-15T08:12:14;1.83;;;1.43;;
26906;SDS011;14472;56.880;16.658;2022-11-15T08:14:39;1.70;;;1.40;;
26906;SDS011;14472;56.880;16.658;2022-11-15T08:17:05;2.00;;;1.57;;
26906;SDS011;14472;56.880;16.658;2022-11-15T08:19:31;1.63;;;1.53;;
26906;SDS011;14472;56.880;16.658;2022-11-15T08:21:57;1.83;;;1.67;;
26906;SDS011;14472;56.880;16.658;2022-11-15T08:24:22;1.40;;;1.30;;
26906;SDS011;14472;56.880;16.658;2022-11-15T08:26:48;2.57;;;1.40;;
26906;SDS011;14472;56.880;16.658;2022-11-15T08:29:14;1.83;;;1.20;;
26906;SDS011;14472;56.880;16.658;2022-11-15T08:31:39;1.50;;;1.30;;
26906;SDS011;14472;56.880;16.658;2022-11-15T08:34:05;1.43;;;1.30;;
26906;SDS011;14472;56.880;16.658;2022-11-15T08:36:31;1.20;;;1.10;;
26906;SDS011;14472;56.880;16.658;2022-11-15T08:38:57;1.40;;;1.30;;
26906;SDS011;14472;56.880;16.658;2022-11-15T08:41:27;1.40;;;1.30;;
26906;SDS011;14472;56.880;16.658;2022-11-15T08:43:58;3.50;;;1.67;;
26906;SDS011;14472;56.880;16.658;2022-11-15T08:46:24;4.77;;;1.47;;
26906;SDS011;14472;56.880;16.658;2022-11-15T08:48:50;1.50;;;1.40;;
26906;SDS011;14472;56.880;16.658;2022-11-15T08:51:15;4.57;;;1.80;;
26906;SDS011;14472;56.880;16.658;2022-11-15T08:53:41;1.83;;;1.30;;
26906;SDS011;14472;56.880;16.658;2022-11-15T08:56:08;5.20;;;1.70;;
26906;SDS011;14472;56.880;16.658;2022-11-15T08:58:39;1.50;;;1.40;;
26906;SDS011;14472;56.880;16.658;2022-11-15T09:01:05;1.20;;;1.20;;
26906;SDS011;14472;56.880;16.658;2022-11-15T09:03:31;8.30;;;1.83;;
26906;SDS011;14472;56.880;16.658;2022-11-15T09:05:57;2.23;;;1.60;;
26906;SDS011;14472;56.880;16.658;2022-11-15T09:08:24;5.00;;;1.80;;
26906;SDS011;14472;56.880;16.658;2022-11-15T09:10:50;2.33;;;1.60;;
26906;SDS011;14472;56.880;16.658;2022-11-15T09:13:16;2.33;;;1.60;;
26906;SDS011;14472;56.880;16.658;2022-11-15T09:15:42;4.47;;;1.80;;
26906;SDS011;14472;56.880;16.658;2022-11-15T09:18:08;4.73;;;1.90;;
26906;SDS011;14472;56.880;16.658;2022-11-15T09:20:33;2.53;;;2.10;;
26906;SDS011;14472;56.880;16.658;2022-11-15T09:23:02;2.00;;;1.80;;
26906;SDS011;14472;56.880;16.658;2022-11-15T09:25:29;1.70;;;1.60;;
26906;SDS011;14472;56.880;16.658;2022-11-15T09:27:55;2.23;;;1.80;;
26906;SDS011;14472;56.880;16.658;2022-11-15T09:30:22;5.30;;;1.83;;
26906;SDS011;14472;56.880;16.658;2022-11-15T09:32:48;3.50;;;1.97;;
26906;SDS011;14472;56.880;16.658;2022-11-15T09:35:14;2.10;;;2.00;;
26906;SDS011;14472;56.880;16.658;2022-11-15T09:37:39;3.43;;;2.20;;
26906;SDS011;14472;56.880;16.658;2022-11-15T09:40:06;4.60;;;2.77;;
26906;SDS011;14472;56.880;16.658;2022-11-15T09:42:44;3.20;;;2.57;;
26906;SDS011;14472;56.880;16.658;2022-11-15T09:45:20;3.73;;;2.00;;
26906;SDS011;14472;56.880;16.658;2022-11-15T09:50:44;2.97;;;1.80;;
26906;SDS011;14472;56.880;16.658;2022-11-15T09:53:24;2.70;;;1.80;;
26906;SDS011;14472;56.880;16.658;2022-11-15T09:56:01;2.97;;;1.60;;
26906;SDS011;14472;56.880;16.658;2022-11-15T10:01:36;2.03;;;1.70;;
26906;SDS011;14472;56.880;16.658;2022-11-15T10:04:17;3.60;;;2.07;;
26906;SDS011;14472;56.880;16.658;2022-11-15T10:06:49;3.07;;;2.00;;
26906;SDS011;14472;56.880;16.658;2022-11-15T10:09:38;2.93;;;1.93;;
26906;SDS011;14472;56.880;16.658;2022-11-15T10:12:09;2.67;;;1.90;;
26906;SDS011;14472;56.880;16.658;2022-11-15T10:14:37;2.37;;;2.00;;
26906;SDS011;14472;56.880;16.658;2022-11-15T10:20:11;1.67;;;1.57;;
26906;SDS011;14472;56.880;16.658;2022-11-15T10:22:45;1.70;;;1.60;;
26906;SDS011;14472;56.880;16.658;2022-11-15T10:27:54;2.43;;;1.80;;
26906;SDS011;14472;56.880;16.658;2022-11-15T10:30:22;2.20;;;1.97;;
26906;SDS011;14472;56.880;16.658;2022-11-15T10:32:49;3.30;;;1.90;;
26906;SDS011;14472;56.880;16.658;2022-11-15T10:38:07;1.93;;;1.83;;
26906;SDS011;14472;56.880;16.658;2022-11-15T10:40:35;2.47;;;2.27;;
26906;SDS011;14472;56.880;16.658;2022-11-15T10:43:06;4.80;;;2.60;;
26906;SDS011;14472;56.880;16.658;2022-11-15T10:45:34;3.50;;;2.50;;
26906;SDS011;14472;56.880;16.658;2022-11-15T10:50:42;3.33;;;2.43;;
26906;SDS011;14472;56.880;16.658;2022-11-15T10:53:15;3.43;;;2.37;;
26906;SDS011;14472;56.880;16.658;2022-11-15T10:55:54;2.90;;;2.33;;
26906;SDS011;14472;56.880;16.658;2022-11-15T10:58:37;2.87;;;2.47;;
26906;SDS011;14472;56.880;16.658;2022-11-15T11:01:12;2.33;;;1.17;;
26906;SDS011;14472;56.880;16.658;2022-11-15T11:03:40;1.83;;;0.90;;
26906;SDS011;14472;56.880;16.658;2022-11-15T11:08:39;1.07;;;0.70;;
26906;SDS011;14472;56.880;16.658;2022-11-15T11:11:05;0.50;;;0.50;;
26906;SDS011;14472;56.880;16.658;2022-11-15T11:13:33;0.60;;;0.60;;
26906;SDS011;14472;56.880;16.658;2022-11-15T11:27:18;1.00;;;0.80;;
26906;SDS011;14472;56.880;16.658;2022-11-15T11:37:52;0.73;;;0.70;;
26906;SDS011;14472;56.880;16.658;2022-11-15T11:40:32;0.70;;;0.70;;
26906;SDS011;14472;56.880;16.658;2022-11-15T11:53:54;0.50;;;0.50;;
26906;SDS011;14472;56.880;16.658;2022-11-15T11:56:31;0.60;;;0.60;;
26906;SDS011;14472;56.880;16.658;2022-11-15T11:59:05;0.77;;;0.67;;
26906;SDS011;14472;56.880;16.658;2022-11-15T12:01:53;0.70;;;0.60;;
26906;SDS011;14472;56.880;16.658;2022-11-15T12:04:21;0.63;;;0.63;;
26906;SDS011;14472;56.880;16.658;2022-11-15T12:07:04;0.60;;;0.60;;
26906;SDS011;14472;56.880;16.658;2022-11-15T12:10:14;0.60;;;0.60;;
26906;SDS011;14472;56.880;16.658;2022-11-15T12:12:44;0.50;;;0.50;;
26906;SDS011;14472;56.880;16.658;2022-11-15T12:15:19;0.57;;;0.57;;
26906;SDS011;14472;56.880;16.658;2022-11-15T12:17:51;0.70;;;0.70;;
26906;SDS011;14472;56.880;16.658;2022-11-15T12:20:18;0.60;;;0.60;;
26906;SDS011;14472;56.880;16.658;2022-11-15T12:26:14;0.60;;;0.60;;
26906;SDS011;14472;56.880;16.658;2022-11-15T12:29:05;0.80;;;0.80;;
26906;SDS011;14472;56.880;16.658;2022-11-15T12:31:38;0.50;;;0.50;;
26906;SDS011;14472;56.880;16.658;2022-11-15T12:36:47;0.63;;;0.63;;
26906;SDS011;14472;56.880;16.658;2022-11-15T12:39:14;0.40;;;0.40;;
26906;SDS011;14472;56.880;16.658;2022-11-15T12:42:34;0.50;;;0.50;;
26906;SDS011;14472;56.880;16.658;2022-11-15T13:02:23;0.50;;;0.50;;
26906;SDS011;14472;56.880;16.658;2022-11-15T13:17:51;1.00;;;0.67;;
26906;SDS011;14472;56.880;16.658;2022-11-15T13:22:53;0.70;;;0.70;;
26906;SDS011;14472;56.880;16.658;2022-11-15T13:28:50;0.90;;;0.60;;
26906;SDS011;14472;56.880;16.658;2022-11-15T13:34:02;1.30;;;1.07;;
26906;SDS011;14472;56.880;16.658;2022-11-15T13:36:48;1.77;;;0.90;;
26906;SDS011;14472;56.880;16.658;2022-11-15T13:39:25;2.23;;;0.90;;
26906;SDS011;14472;56.880;16.658;2022-11-15T13:41:56;1.73;;;0.73;;
26906;SDS011;14472;56.880;16.658;2022-11-15T13:44:25;3.07;;;0.90;;
26906;SDS011;14472;56.880;16.658;2022-11-15T13:49:40;2.43;;;0.80;;
26906;SDS011;14472;56.880;16.658;2022-11-15T13:52:07;2.40;;;0.80;;
26906;SDS011;14472;56.880;16.658;2022-11-15T13:54:58;0.67;;;0.67;;
26906;SDS011;14472;56.880;16.658;2022-11-15T13:57:25;1.47;;;0.70;;
26906;SDS011;14472;56.880;16.658;2022-11-15T14:00:00;0.90;;;0.77;;
26906;SDS011;14472;56.880;16.658;2022-11-15T14:02:37;0.70;;;0.70;;
26906;SDS011;14472;56.880;16.658;2022-11-15T14:05:17;1.37;;;0.80;;
26906;SDS011;14472;56.880;16.658;2022-11-15T14:10:46;0.97;;;0.80;;
26906;SDS011;14472;56.880;16.658;2022-11-15T14:13:26;0.90;;;0.70;;
26906;SDS011;14472;56.880;16.658;2022-11-15T14:15:53;0.83;;;0.73;;
26906;SDS011;14472;56.880;16.658;2022-11-15T14:18:39;0.70;;;0.70;;
26906;SDS011;14472;56.880;16.658;2022-11-15T14:21:06;1.70;;;0.70;;
26906;SDS011;14472;56.880;16.658;2022-11-15T14:23:33;0.60;;;0.60;;
26906;SDS011;14472;56.880;16.658;2022-11-15T14:25:58;1.73;;;0.70;;
26906;SDS011;14472;56.880;16.658;2022-11-15T14:30:54;1.00;;;0.70;;
26906;SDS011;14472;56.880;16.658;2022-11-15T14:33:35;0.70;;;0.70;;
26906;SDS011;14472;56.880;16.658;2022-11-15T14:36:06;0.63;;;0.60;;
26906;SDS011;14472;56.880;16.658;2022-11-15T14:38:40;1.43;;;0.90;;
26906;SDS011;14472;56.880;16.658;2022-11-15T14:41:18;0.60;;;0.60;;
26906;SDS011;14472;56.880;16.658;2022-11-15T14:43:45;1.13;;;0.60;;
26906;SDS011;14472;56.880;16.658;2022-11-15T14:46:11;1.23;;;0.77;;
26906;SDS011;14472;56.880;16.658;2022-11-15T14:48:37;0.60;;;0.60;;
26906;SDS011;14472;56.880;16.658;2022-11-15T14:51:03;1.87;;;0.90;;
26906;SDS011;14472;56.880;16.658;2022-11-15T14:53:34;1.03;;;0.70;;
26906;SDS011;14472;56.880;16.658;2022-11-15T14:55:59;1.80;;;0.90;;
26906;SDS011;14472;56.880;16.658;2022-11-15T14:58:25;0.67;;;0.67;;
26906;SDS011;14472;56.880;16.658;2022-11-15T15:00:51;0.93;;;0.63;;
26906;SDS011;14472;56.880;16.658;2022-11-15T15:03:16;0.97;;;0.70;;
26906;SDS011;14472;56.880;16.658;2022-11-15T15:05:42;1.97;;;0.73;;
26906;SDS011;14472;56.880;16.658;2022-11-15T15:08:09;1.73;;;0.80;;
26906;SDS011;14472;56.880;16.658;2022-11-15T15:10:39;1.83;;;0.80;;
26906;SDS011;14472;56.880;16.658;2022-11-15T15:13:25;0.60;;;0.60;;
26906;SDS011;14472;56.880;16.658;2022-11-15T15:15:51;1.13;;;0.80;;
26906;SDS011;14472;56.880;16.658;2022-11-15T15:18:17;1.10;;;0.70;;
26906;SDS011;14472;56.880;16.658;2022-11-15T15:20:44;0.80;;;0.50;;
26906;SDS011;14472;56.880;16.658;2022-11-15T15:23:19;1.53;;;0.70;;
26906;SDS011;14472;56.880;16.658;2022-11-15T15:25:46;0.93;;;0.60;;
26906;SDS011;14472;56.880;16.658;2022-11-15T15:28:14;1.37;;;0.70;;
26906;SDS011;14472;56.880;16.658;2022-11-15T15:30:39;0.60;;;0.60;;
26906;SDS011;14472;56.880;16.658;2022-11-15T15:33:06;0.63;;;0.63;;
26906;SDS011;14472;56.880;16.658;2022-11-15T15:35:32;0.60;;;0.60;;
26906;SDS011;14472;56.880;16.658;2022-11-15T15:37:59;0.60;;;0.60;;
26906;SDS011;14472;56.880;16.658;2022-11-15T15:40:25;0.60;;;0.60;;
26906;SDS011;14472;56.880;16.658;2022-11-15T15:42:54;0.73;;;0.57;;
26906;SDS011;14472;56.880;16.658;2022-11-15T15:45:20;1.37;;;0.83;;
26906;SDS011;14472;56.880;16.658;2022-11-15T15:47:46;0.60;;;0.60;;
26906;SDS011;14472;56.880;16.658;2022-11-15T15:50:17;0.97;;;0.70;;
26906;SDS011;14472;56.880;16.658;2022-11-15T15:52:53;0.80;;;0.60;;
26906;SDS011;14472;56.880;16.658;2022-11-15T15:55:20;1.40;;;0.60;;
26906;SDS011;14472;56.880;16.658;2022-11-15T15:57:46;0.93;;;0.70;;
26906;SDS011;14472;56.880;16.658;2022-11-15T16:00:12;1.10;;;0.70;;
26906;SDS011;14472;56.880;16.658;2022-11-15T16:02:38;1.40;;;0.80;;
26906;SDS011;14472;56.880;16.658;2022-11-15T16:05:05;0.60;;;0.60;;
26906;SDS011;14472;56.880;16.658;2022-11-15T16:07:31;0.60;;;0.60;;
26906;SDS011;14472;56.880;16.658;2022-11-15T16:09:57;0.53;;;0.53;;
26906;SDS011;14472;56.880;16.658;2022-11-15T16:12:34;0.60;;;0.60;;
26906;SDS011;14472;56.880;16.658;2022-11-15T16:15:00;0.60;;;0.60;;
26906;SDS011;14472;56.880;16.658;2022-11-15T16:17:33;0.53;;;0.53;;
26906;SDS011;14472;56.880;16.658;2022-11-15T16:20:02;0.60;;;0.60;;
26906;SDS011;14472;56.880;16.658;2022-11-15T16:22:28;1.10;;;0.73;;
26906;SDS011;14472;56.880;16.658;2022-11-15T16:24:54;0.43;;;0.43;;
26906;SDS011;14472;56.880;16.658;2022-11-15T16:27:20;0.80;;;0.60;;
26906;SDS011;14472;56.880;16.658;2022-11-15T16:29:47;0.50;;;0.50;;
26906;SDS011;14472;56.880;16.658;2022-11-15T16:32:13;1.00;;;0.63;;
26906;SDS011;14472;56.880;16.658;2022-11-15T16:34:40;0.63;;;0.63;;
26906;SDS011;14472;56.880;16.658;2022-11-15T16:37:08;1.03;;;0.70;;
26906;SDS011;14472;56.880;16.658;2022-11-15T16:39:47;0.80;;;0.80;;
26906;SDS011;14472;56.880;16.658;2022-11-15T16:42:13;0.60;;;0.60;;
26906;SDS011;14472;56.880;16.658;2022-11-15T16:44:39;0.80;;;0.70;;
26906;SDS011;14472;56.880;16.658;2022-11-15T16:47:04;2.00;;;0.57;;
26906;SDS011;14472;56.880;16.658;2022-11-15T16:49:30;1.20;;;1.10;;
26906;SDS011;14472;56.880;16.658;2022-11-15T16:51:55;1.00;;;0.90;;
26906;SDS011;14472;56.880;16.658;2022-11-15T16:54:21;1.73;;;0.87;;
26906;SDS011;14472;56.880;16.658;2022-11-15T16:56:47;1.77;;;0.77;;
26906;SDS011;14472;56.880;16.658;2022-11-15T16:59:14;0.50;;;0.50;;